Tiempo atmosférico en la estación meteorológica de Medina Sidonia, Cádiz (90 m.)



Fecha
DESCASC
Temp. máxima en grados centígrados (hora)
DESCASC
Temp. mínima en grados centígrados (hora)
DESCASC
Temp. media en grados centígrados
DESCASC
Racha de viento máxima en m/sg (hora)
DESCASC
Velocidad máxima media en intervalos de 10 minutos(hora)
DESCASC
Precipitaciones diarias en mm
DESCASC
Precipitaciones de 00:00 a 06:00 en mm
DESCASC
Precipitaciones de 06:00 a 12:00 en mm
DESCASC
Precipitaciones de 12:00 a 18:00 en mm
DESCASC
Precipitaciones de 18:00 a 24:00 en mm
DESCASC
18-08-2019 30.7 (16:40) 18 (06:40) 24.4 9.17 (18:00) 6.39 (17:50) 0 0 0 0 0
17-08-2019 37.8 (16:50) 19.7 (08:00) 28.8 14.17 (15:10) 7.22 (13:50) 0 0 0 0 0
16-08-2019 36.8 (16:50) 21.1 (05:30) 28.9 9.44 (12:40) 6.67 (11:50) 0 0 0 0 0
15-08-2019 36.4 (15:50) 21.1 (00:00) 28.8 10.28 (17:00) 7.22 (16:10) 0 0 0 0 0
14-08-2019 33.4 (16:50) 23.7 (00:00) 28.6 13.89 (11:00) 10.28 (12:10) 0 0 0 0 0
13-08-2019 34.2 (14:50) 14.2 (00:00) 24.2 11.67 (10:50) 8.61 (10:50) 0 0 0 0 0
12-08-2019 33.1 (15:40) 17.7 (00:00) 25.4 13.33 (19:00) 9.72 (18:40) 0 0 0 0 0
11-08-2019 30.3 (13:30) 19 (00:00) 24.6 12.5 (15:30) 8.89 (16:20) 0 0 0 0 0
10-08-2019 33.7 (14:50) 20.3 (00:00) 27 11.94 (20:40) 9.17 (20:00) 0 0 0 0 0
09-08-2019 30.4 (16:20) 19.2 (00:00) 24.8 10.56 (17:30) 7.78 (17:10) 0 0 0 0 0
08-08-2019 34.5 (14:40) 17.1 (00:00) 25.8 10.56 (19:50) 8.06 (20:00) 0 0 0 0 0
07-08-2019 32.9 (16:10) 17.7 (00:00) 25.3 11.67 (17:00) 8.33 (17:00) 0 0 0 0 0
06-08-2019 35.6 (15:10) 15.5 (00:00) 25.5 10.83 (18:30) 8.33 (18:10) 0 0 0 0 0
05-08-2019 34.4 (14:40) 17.1 (00:00) 25.8 11.39 (20:00) 8.89 (19:50) 0 0 0 0 0
04-08-2019 32.1 (17:50) 19 (00:00) 25.5 8.89 (15:30) 6.67 (19:00) 0 0 0 0 0
03-08-2019 31.8 (17:20) 16.5 (00:00) 24.1 9.72 (15:00) 6.11 (15:00) 0 0 0 0 0
02-08-2019 32.8 (13:00) 17.2 (00:00) 25 10.83 (18:50) 8.61 (18:40) 0 0 0 0 0
01-08-2019 33.3 (15:40) 22.6 (00:00) 27.9 11.94 (10:10) 8.61 (09:50) 0 0 0 0 0
31-07-2019 31.1 (16:30) 21.5 (00:00) 26.3 16.67 (14:10) 11.94 (14:00) 0 0 0 0 0
30-07-2019 35.2 (16:00) 18.6 (00:00) 26.9 11.39 (19:10) 8.61 (18:20) 0 0 0 0 0
29-07-2019 31.2 (17:50) 16.8 (00:00) 24 11.11 (20:10) 8.06 (20:10) 0 0 0 0 0
28-07-2019 26.9 (15:00) 19.3 (00:00) 23.1 10.28 (14:50) 5.83 (16:10) 0 0 0 0 0
27-07-2019 25.6 (15:20) 18.3 (00:00) 21.9 12.5 (14:30) 8.61 (15:50) 0 0 0 0 0
26-07-2019 28.5 (17:20) 20.7 (00:00) 24.6 13.33 (15:10) 8.61 (15:10) 0 0 0 0 0
25-07-2019 31 (12:50) 19.1 (00:00) 25.1 9.17 (16:40) 6.11 (20:10) 0 0 0 0 0
24-07-2019 35.3 (17:20) 20.6 (00:00) 27.9 12.22 (14:20) 8.89 (14:40) 0 0 0 0 0

Gráficas

Temp. máximas Temp. mínimas Temp. medias Precipitaciones Rachas de viento máximas Velocidades máximas media en intervalos de 10 minutos

Datos horarios

Fecha y hora oficial Temperatura (ºC) Velocidad del viento (km/h) Dirección del viento Racha (km/h) Dirección de racha Precipitación (mm) Presión (hPa) Tendencia (hPa) Humedad (%)
2019-08-22 23:00:00 24.9 45 Este 66 Este 0 -- -- 67
2019-08-22 22:00:00 25.3 44 Este 65 Este 0 -- -- 60
2019-08-22 21:00:00 26.7 45 Este 71 Este 0 -- -- 50
2019-08-22 20:00:00 28.2 47 Este 75 Este 0 -- -- 50
2019-08-22 19:00:00 29.5 56 Este 76 Este 0 -- -- 46
2019-08-22 18:00:00 30.3 57 Este 76 Este 0 -- -- 42
2019-08-22 17:00:00 30.5 54 Este 81 Este 0 -- -- 46
2019-08-22 16:00:00 30.7 48 Este 69 Este 0 -- -- 51
2019-08-22 15:00:00 30.3 50 Este 73 Este 0 -- -- 51
2019-08-22 14:00:00 30 50 Este 67 Este 0 -- -- 51
2019-08-22 13:00:00 29.9 43 Este 63 Este 0 -- -- 51
2019-08-22 12:00:00 28.8 40 Este 64 Este 0 -- -- 57
2019-08-22 11:00:00 27.4 41 Este 63 Sudeste 0 -- -- 61
2019-08-22 10:00:00 26.5 31 Este 49 Este 0 -- -- 65
2019-08-22 09:00:00 24.9 32 Este 50 Este 0 -- -- 69
2019-08-22 08:00:00 23.8 28 Este 42 Este 0 -- -- 75
2019-08-22 07:00:00 23.9 23 Este 42 Este 0 -- -- 80
2019-08-22 06:00:00 24.3 30 Este 45 Este 0 -- -- 78
2019-08-22 05:00:00 24.4 30 Este 51 Este 0 -- -- 77
2019-08-22 04:00:00 24.4 28 Este 51 Este 0 -- -- 78
2019-08-22 03:00:00 24.5 23 Este 41 Este 0 -- -- 78
2019-08-22 02:00:00 24.6 30 Este 46 Sudeste 0 -- -- 78
2019-08-22 01:00:00 24.8 31 Este 44 Este 0 -- -- 78
2019-08-22 00:00:00 24.9 29 Este 46 Este 0 -- -- 77
2019-08-21 23:00:00 25.2 31 Este 48 Sudeste 0 -- -- 76
2019-08-21 22:00:00 25.9 32 Sudeste 51 Este 0 -- -- 73
2019-08-21 21:00:00 27 33 Sudeste 56 Este 0 -- -- 67
2019-08-21 20:00:00 28.9 40 Este 55 Este 0 -- -- 58
2019-08-21 19:00:00 30.3 39 Este 54 Este 0 -- -- 54
2019-08-21 18:00:00 31.6 38 Este 58 Este 0 -- -- 50
2019-08-21 17:00:00 31.7 44 Este 62 Este 0 -- -- 51
2019-08-21 16:00:00 31.9 46 Este 63 Este 0 -- -- 51
2019-08-21 15:00:00 32 45 Este 64 Sudeste 0 -- -- 51
2019-08-21 14:00:00 31.8 45 Este 71 Sudeste 0 -- -- 50
2019-08-21 13:00:00 30.8 52 Este 68 Este 0 -- -- 52
2019-08-21 12:00:00 30.5 43 Este 64 Este 0 -- -- 56
2019-08-21 11:00:00 29.1 37 Este 54 Este 0 -- -- 61
2019-08-21 10:00:00 27.4 37 Este 54 Este 0 -- -- 69
2019-08-21 09:00:00 26 29 Este 45 Sudeste 0 -- -- 75
2019-08-21 08:00:00 24.9 27 Sudeste 47 Sudeste 0 -- -- 78
2019-08-21 07:00:00 24.8 22 Este 44 Este 0 -- -- 78
2019-08-21 06:00:00 24.9 32 Este 49 Este 0 -- -- 77
2019-08-21 05:00:00 25 29 Este 51 Este 0 -- -- 77
2019-08-21 04:00:00 24.7 27 Este 45 Sudeste 0 -- -- 77
2019-08-21 03:00:00 21.3 6 Sudeste 11 Sudeste 0 -- -- 74
2019-08-21 02:00:00 20.4 0 Calma 5 Oeste 0 -- -- 60
2019-08-21 01:00:00 20.4 4 Oeste 8 Noroeste 0 -- -- 56
2019-08-21 00:00:00 21 3 Oeste 7 Oeste 0 -- -- 59
2019-08-20 23:00:00 22.1 3 Oeste 14 Noroeste 0 -- -- 62
2019-08-20 22:00:00 23.5 4 Norte 19 Oeste 0 -- -- 55
2019-08-20 21:00:00 25.7 10 Oeste 24 Oeste 0 -- -- 46
2019-08-20 20:00:00 28.7 17 Oeste 25 Noroeste 0 -- -- 34
2019-08-20 19:00:00 30.4 14 Oeste 28 Oeste 0 -- -- 30
2019-08-20 18:00:00 30.5 16 Oeste 26 Sudoeste 0 -- -- 29
2019-08-20 17:00:00 30.7 20 Oeste 27 Sudoeste 0 -- -- 26
2019-08-20 16:00:00 30.3 19 Oeste 30 Sudoeste 0 -- -- 24
2019-08-20 15:00:00 29.8 18 Oeste 32 Sudoeste 0 -- -- 36
2019-08-20 14:00:00 29.4 18 Sudoeste 28 Oeste 0 -- -- 43
2019-08-20 13:00:00 29 8 Sudoeste 24 Sur 0 -- -- 49
2019-08-20 12:00:00 27.5 10 Sudeste 20 Sudeste 0 -- -- 59
2019-08-20 11:00:00 24.9 9 Sur 19 Sudeste 0 -- -- 68
2019-08-20 10:00:00 22.4 10 Sudeste 15 Sudeste 0 -- -- 83
2019-08-20 09:00:00 20.2 9 Sudeste 13 Sudeste 0 -- -- 92
2019-08-20 08:00:00 19.7 4 Sudeste 8 Sur 0 -- -- 95
2019-08-20 07:00:00 18.5 0 Calma 4 Noroeste 0 -- -- 95
2019-08-20 06:00:00 17.3 0 Calma 3 Este 0 -- -- 89
2019-08-20 05:00:00 18 2 Este 4 Sudeste 0 -- -- 90
2019-08-20 04:00:00 18.2 2 Este 6 Este 0 -- -- 87
2019-08-20 03:00:00 18.6 4 Este 6 Este 0 -- -- 84
2019-08-20 02:00:00 19.1 3 Este 5 Este 0 -- -- 80
2019-08-20 01:00:00 19.6 0 Calma 4 Oeste 0 -- -- 75
2019-08-20 00:00:00 20.6 4 Sudoeste 7 Oeste 0 -- -- 73
2019-08-19 23:00:00 21.8 4 Oeste 14 Oeste 0 -- -- 74
2019-08-19 22:00:00 22.7 10 Oeste 24 Oeste 0 -- -- 77
2019-08-19 21:00:00 24.8 17 Oeste 30 Oeste 0 -- -- 64
2019-08-19 20:00:00 27.9 24 Oeste 42 Oeste 0 -- -- 51
2019-08-19 19:00:00 29.7 26 Oeste 36 Oeste 0 -- -- 38
2019-08-19 18:00:00 30.5 20 Oeste 36 Oeste 0 -- -- 42
2019-08-19 17:00:00 30.8 18 Noroeste 32 Oeste 0 -- -- 50
2019-08-19 16:00:00 30.1 21 Oeste 34 Oeste 0 -- -- 56
2019-08-19 15:00:00 29.5 23 Oeste 31 Oeste 0 -- -- 57
2019-08-19 14:00:00 29 15 Sudoeste 30 Sudeste 0 -- -- 60
2019-08-19 13:00:00 27.7 17 Sudeste 27 Sur 0 -- -- 66
2019-08-19 12:00:00 26 13 Sur 22 Sudeste 0 -- -- 72
2019-08-19 11:00:00 24.6 9 Sur 15 Sur 0 -- -- 79
2019-08-19 10:00:00 23.2 8 Sur 17 Sur 0 -- -- 85
2019-08-19 09:00:00 22.2 6 Sur 12 Sur 0 -- -- 91
2019-08-19 08:00:00 21.8 6 Sudoeste 11 Sudoeste 0 -- -- 93
2019-08-19 07:00:00 21.5 5 Sur 13 Sur 0 -- -- 94
2019-08-19 06:00:00 21.1 7 Sur 12 Sudoeste 0 -- -- 96
2019-08-19 05:00:00 20.5 5 Sur 13 Sudeste 0 -- -- 97
2019-08-19 04:00:00 19.1 5 Este 8 Nordeste 0 -- -- 95
2019-08-19 03:00:00 18.9 4 Este 8 Este 0 -- -- 90
2019-08-19 02:00:00 18.9 5 Este 7 Sudeste 0 -- -- 85
2019-08-19 01:00:00 19.3 0 Calma 3 Nordeste 0 -- -- 82
2019-08-19 00:00:00 20.2 2 Oeste 4 Oeste 0 -- -- 80
2019-08-18 23:00:00 21.6 4 Sudoeste 10 Oeste 0 -- -- 77
2019-08-18 22:00:00 23.3 4 Oeste 12 Oeste 0 -- -- 74
2019-08-18 21:00:00 25.1 10 Oeste 21 Oeste 0 -- -- 66
2019-08-18 20:00:00 27.9 16 Oeste 24 Oeste 0 -- -- 52
2019-08-18 19:00:00 29.8 18 Oeste 27 Oeste 0 -- -- 45
2019-08-18 18:00:00 30.1 21 Oeste 33 Oeste 0 -- -- 46
2019-08-18 17:00:00 30.7 19 Oeste 30 Oeste 0 -- -- 47
2019-08-18 16:00:00 30.2 20 Oeste 29 Oeste 0 -- -- 50
2019-08-18 15:00:00 28.8 16 Sudoeste 31 Sudoeste 0 -- -- 55
2019-08-18 14:00:00 27.9 17 Sudoeste 32 Sudoeste 0 -- -- 59
2019-08-18 13:00:00 28 14 Sudoeste 27 Sudoeste 0 -- -- 59
2019-08-18 12:00:00 25.7 14 Sur 27 Sur 0 -- -- 70
2019-08-18 11:00:00 22.8 14 Sur 24 Sur 0 -- -- 82
2019-08-18 10:00:00 21.8 13 Sudeste 22 Sudeste 0 -- -- 88
2019-08-18 09:00:00 21.3 10 Sudeste 18 Sudeste 0 -- -- 90
2019-08-18 08:00:00 20.3 10 Sudeste 19 Sur 0 -- -- 89
2019-08-18 07:00:00 19.3 11 Sudeste 23 Sudeste 0 -- -- 85
2019-08-18 06:00:00 18.9 5 Este 8 Este 0 -- -- 64
2019-08-18 05:00:00 19.1 0 Calma 6 Este 0 -- -- 62
2019-08-18 04:00:00 20.2 0 Calma 3 Noroeste 0 -- -- 58
2019-08-18 03:00:00 21.3 0 Calma 6 Noroeste 0 -- -- 56
2019-08-18 02:00:00 22.2 4 Noroeste 7 Noroeste 0 -- -- 54
2019-08-18 01:00:00 22.8 3 Noroeste 6 Oeste 0 -- -- 50
2019-08-18 00:00:00 23.8 3 Oeste 7 Oeste 0 -- -- 47
2019-08-17 23:00:00 25.6 4 Noroeste 8 Noroeste 0 -- -- 43
2019-08-17 22:00:00 27.6 6 Oeste 15 Oeste 0 -- -- 38
2019-08-17 21:00:00 30.5 5 Oeste 17 Noroeste 0 -- -- 34
2019-08-17 20:00:00 34.8 14 Este 27 Este 0 -- -- 28
2019-08-17 19:00:00 36.1 17 Sudeste 32 Sudeste 0 -- -- 27
2019-08-17 18:00:00 37.3 15 Sudeste 31 Sudeste 0 -- -- 25
2019-08-17 17:00:00 37.7 17 Sudeste 32 Sudeste 0 -- -- 25
2019-08-17 16:00:00 37.4 21 Sudeste 51 Este 0 -- -- 27
2019-08-17 15:00:00 36.9 23 Sudeste 36 Este 0 -- -- 29
2019-08-17 14:00:00 36.1 23 Este 39 Este 0 -- -- 29
2019-08-17 13:00:00 34.5 21 Este 32 Este 0 -- -- 31
2019-08-17 12:00:00 32.6 19 Este 27 Este 0 -- -- 37
2019-08-17 11:00:00 29.6 15 Sudeste 21 Sudeste 0 -- -- 46
2019-08-17 10:00:00 26.4 4 Sudeste 10 Sur 0 -- -- 57
2019-08-17 09:00:00 23.6 3 Sudeste 12 Nordeste 0 -- -- 65
2019-08-17 08:00:00 19.7 2 Oeste 5 Oeste 0 -- -- 68
2019-08-17 07:00:00 20.3 4 Oeste 5 Oeste 0 -- -- 67
2019-08-17 06:00:00 20.5 0 Calma 6 Noroeste 0 -- -- 61
2019-08-17 05:00:00 20.1 4 Oeste 6 Oeste 0 -- -- 62
2019-08-17 04:00:00 21.1 2 Sudoeste 5 Oeste 0 -- -- 62
2019-08-17 03:00:00 22.2 3 Oeste 5 Oeste 0 -- -- 56
2019-08-17 02:00:00 22.8 0 Calma 5 Noroeste 0 -- -- 54
2019-08-17 01:00:00 23.9 2 Oeste 5 Oeste 0 -- -- 49
2019-08-17 00:00:00 24.8 2 Noroeste 5 Oeste 0 -- -- 46
2019-08-16 23:00:00 26.2 0 Calma 5 Noroeste 0 -- -- 46
2019-08-16 22:00:00 28.2 3 Este 14 Sudeste 0 -- -- 41
2019-08-16 21:00:00 30.8 10 Este 21 Este 0 -- -- 37
2019-08-16 20:00:00 33.3 14 Sudeste 28 Sudeste 0 -- -- 34
2019-08-16 19:00:00 35.1 14 Sudeste 29 Sudeste 0 -- -- 31
2019-08-16 18:00:00 35.8 16 Sudeste 30 Sudeste 0 -- -- 30
2019-08-16 17:00:00 36.4 17 Sudeste 29 Sudeste 0 -- -- 29
2019-08-16 16:00:00 36.4 17 Sudeste 31 Sur 0 -- -- 28
2019-08-16 15:00:00 36.1 20 Sudeste 32 Sudeste 0 -- -- 29
2019-08-16 14:00:00 35.1 22 Sudeste 33 Este 0 -- -- 32
2019-08-16 13:00:00 34.3 22 Sudeste 34 Este 0 -- -- 33
2019-08-16 12:00:00 33.3 22 Sudeste 33 Este 0 -- -- 34
2019-08-16 11:00:00 31.4 18 Sudeste 27 Sudeste 0 -- -- 37
2019-08-16 10:00:00 28.8 13 Este 18 Este 0 -- -- 44
2019-08-16 09:00:00 25.5 3 Este 8 Sudeste 0 -- -- 50
2019-08-16 08:00:00 22.8 3 Sur 10 Sudeste 0 -- -- 56
2019-08-16 07:00:00 22.4 5 Sur 9 Sudeste 0 -- -- 58
2019-08-16 06:00:00 21.1 2 Oeste 4 Noroeste 0 -- -- 61
2019-08-16 05:00:00 21.9 0 Calma 5 Oeste 0 -- -- 58
2019-08-16 04:00:00 22.5 4 Oeste 7 Sudoeste 0 -- -- 56
2019-08-16 03:00:00 24.1 4 Sur 10 Sudeste 0 -- -- 52
2019-08-16 02:00:00 24.8 8 Sudeste 13 Sudeste 0 -- -- 49
2019-08-16 01:00:00 24.3 2 Sudeste 5 Este 0 -- -- 52
2019-08-16 00:00:00 24.9 2 Noroeste 6 Noroeste 0 -- -- 53
2019-08-15 23:00:00 26.9 0 Calma 6 Sur 0 -- -- 46
2019-08-15 22:00:00 28.5 4 Sudeste 10 Sudeste 0 -- -- 44
2019-08-15 21:00:00 31.2 8 Sudeste 17 Sudeste 0 -- -- 37
2019-08-15 20:00:00 33.9 5 Oeste 23 Este 0 -- -- 44
2019-08-15 19:00:00 35.1 16 Este 35 Este 0 -- -- 31
2019-08-15 18:00:00 36 21 Sudeste 35 Sudeste 0 -- -- 28
2019-08-15 17:00:00 36.4 23 Este 37 Este 0 -- -- 29
2019-08-15 16:00:00 36.4 25 Este 36 Este 0 -- -- 29
2019-08-15 15:00:00 35.4 23 Sudeste 36 Este 0 -- -- 33
2019-08-15 14:00:00 34.5 22 Sudeste 36 Sudeste 0 -- -- 38
2019-08-15 13:00:00 32.9 23 Sudeste 35 Sudeste 0 -- -- 38
2019-08-15 12:00:00 31 23 Sudeste 34 Sudeste 0 -- -- 50
2019-08-15 11:00:00 28.6 18 Este 23 Este 0 -- -- 59
2019-08-15 10:00:00 26.7 13 Sudeste 20 Sudeste 0 -- -- 66
2019-08-15 09:00:00 24.1 5 Este 17 Este 0 -- -- 76
2019-08-15 08:00:00 21.5 8 Sudeste 18 Este 0 -- -- 85
2019-08-15 07:00:00 21.8 3 Oeste 6 Oeste 0 -- -- 82
2019-08-15 06:00:00 22.2 2 Oeste 14 Sudeste 0 -- -- 81
2019-08-15 05:00:00 22.3 6 Sudeste 10 Sudeste 0 -- -- 81
2019-08-15 04:00:00 22.7 5 Sur 13 Sudeste 0 -- -- 81
2019-08-15 03:00:00 23 9 Sudeste 18 Sudeste 0 -- -- 80
2019-08-15 02:00:00 23.8 10 Sudeste 15 Sudeste 0 -- -- 77
2019-08-15 01:00:00 23.9 5 Sudeste 9 Sudeste 0 -- -- 74
2019-08-15 00:00:00 24.5 0 Calma 5 Este 0 -- -- 70
2019-08-14 23:00:00 25.7 5 Este 13 Sudeste 0 -- -- 68
2019-08-14 22:00:00 26.9 9 Sudeste 20 Sur 0 -- -- 64
2019-08-14 21:00:00 28.7 9 Sudeste 22 Sudeste 0 -- -- 59
2019-08-14 20:00:00 30.5 19 Sudeste 28 Sudeste 0 -- -- 54
2019-08-14 19:00:00 32 20 Sudeste 36 Sudeste 0 -- -- 50
2019-08-14 18:00:00 32.9 30 Sudeste 43 Sudeste 0 -- -- 47
2019-08-14 17:00:00 33.2 31 Este 48 Este 0 -- -- 45
2019-08-14 16:00:00 33.1 30 Este 48 Este 0 -- -- 45
2019-08-14 15:00:00 32.2 36 Sudeste 48 Este 0 -- -- 49
2019-08-14 14:00:00 31.7 32 Este 49 Sudeste 0 -- -- 53
2019-08-14 13:00:00 30.9 33 Este 48 Este 0 -- -- 56
2019-08-14 12:00:00 29.4 34 Este 49 Este 0 -- -- 61
2019-08-14 11:00:00 28.3 35 Este 50 Este 0 -- -- 65
2019-08-14 10:00:00 26.9 28 Este 41 Este 0 -- -- 72
2019-08-14 09:00:00 25.4 22 Este 38 Este 0 -- -- 79
2019-08-14 08:00:00 23.9 18 Este 30 Este 0 -- -- 85
2019-08-14 07:00:00 23.9 18 Este 25 Este 0 -- -- 85
2019-08-14 06:00:00 24.3 6 Este 32 Este 0 -- -- 83
2019-08-14 05:00:00 24.2 19 Este 33 Este 0 -- -- 83
2019-08-14 04:00:00 23.9 17 Sudeste 34 Este 0 -- -- 84
2019-08-14 03:00:00 23.8 19 Sudeste 29 Sudeste 0 -- -- 85
2019-08-14 02:00:00 24.2 10 Sudeste 24 Este 0 -- -- 84
2019-08-14 01:00:00 24.3 6 Sudeste 15 Sudeste 0 -- -- 84
2019-08-14 00:00:00 24.7 8 Sudeste 21 Sudeste 0 -- -- 82
2019-08-13 23:00:00 25.4 17 Sudeste 26 Este 0 -- -- 79
2019-08-13 22:00:00 26.9 10 Sudeste 26 Este 0 -- -- 70
2019-08-13 21:00:00 28.7 19 Sudeste 27 Sudeste 0 -- -- 60
2019-08-13 20:00:00 31.4 15 Sudeste 24 Este 0 -- -- 50
2019-08-13 19:00:00 31.9 14 Oeste 25 Oeste 0 -- -- 41
2019-08-13 18:00:00 32.5 15 Oeste 30 Noroeste 0 -- -- 39
2019-08-13 17:00:00 33.3 19 Oeste 31 Oeste 0 -- -- 38
2019-08-13 16:00:00 33.2 17 Noroeste 30 Noroeste 0 -- -- 40
2019-08-13 15:00:00 33.9 12 Sudeste 27 Sudeste 0 -- -- 38
2019-08-13 14:00:00 33 11 Sudeste 27 Sudeste 0 -- -- 38
2019-08-13 13:00:00 31.6 17 Este 37 Este 0 -- -- 48
2019-08-13 12:00:00 30 26 Sudeste 40 Este 0 -- -- 54
2019-08-13 11:00:00 28.8 28 Este 42 Sudeste 0 -- -- 57
2019-08-13 10:00:00 24.7 7 Sudeste 14 Sudeste 0 -- -- 63
2019-08-13 09:00:00 18.3 2 Este 7 Este 0 -- -- 62
2019-08-13 08:00:00 15.1 3 Oeste 7 Oeste 0 -- -- 72
2019-08-13 07:00:00 14.5 2 Noroeste 5 Oeste 0 -- -- 67
2019-08-13 06:00:00 15.2 0 Calma 4 Noroeste 0 -- -- 68
2019-08-13 05:00:00 15.9 4 Oeste 6 Noroeste 0 -- -- 68
2019-08-13 04:00:00 16.5 2 Noroeste 7 Noroeste 0 -- -- 68
2019-08-13 03:00:00 17.4 2 Oeste 6 Oeste 0 -- -- 66
2019-08-13 02:00:00 17.9 0 Calma 5 Oeste 0 -- -- 65
2019-08-13 01:00:00 18.5 3 Oeste 6 Noroeste 0 -- -- 66
2019-08-13 00:00:00 19.4 4 Oeste 6 Noroeste 0 -- -- 64
2019-08-12 23:00:00 21.4 5 Nordeste 34 Oeste 0 -- -- 56
2019-08-12 22:00:00 22.1 26 Oeste 46 Oeste 0 -- -- 56
2019-08-12 21:00:00 24 34 Oeste 45 Noroeste 0 -- -- 52
2019-08-12 20:00:00 28.4 29 Oeste 43 Oeste 0 -- -- 29
2019-08-12 19:00:00 29.1 33 Oeste 48 Oeste 0 -- -- 30
2019-08-12 18:00:00 30.1 31 Oeste 44 Oeste 0 -- -- 30
2019-08-12 17:00:00 31.4 30 Oeste 42 Oeste 0 -- -- 29
2019-08-12 16:00:00 32.5 16 Noroeste 30 Oeste 0 -- -- 20
2019-08-12 15:00:00 32.3 10 Norte 29 Noroeste 0 -- -- 22
2019-08-12 14:00:00 30.6 11 Noroeste 29 Noroeste 0 -- -- 25
2019-08-12 13:00:00 28.9 12 Norte 28 Noroeste 0 -- -- 29
2019-08-12 12:00:00 25.9 13 Noroeste 30 Noroeste 0 -- -- 36
2019-08-12 11:00:00 24.5 15 Noroeste 33 Noroeste 0 -- -- 39
2019-08-12 10:00:00 22.9 8 Noroeste 20 Noroeste 0 -- -- 43
2019-08-12 09:00:00 20.5 11 Noroeste 28 Noroeste 0 -- -- 49
2019-08-12 08:00:00 17.9 10 Noroeste 21 Noroeste 0 -- -- 55
2019-08-12 07:00:00 18.2 7 Noroeste 15 Noroeste 0 -- -- 53
2019-08-12 06:00:00 19.4 8 Noroeste 21 Noroeste 0 -- -- 49
2019-08-12 05:00:00 19.5 10 Noroeste 20 Noroeste 0 -- -- 49
2019-08-12 04:00:00 20.9 9 Noroeste 23 Noroeste 0 -- -- 45
2019-08-12 03:00:00 21.4 7 Noroeste 22 Noroeste 0 -- -- 44
2019-08-12 02:00:00 21.5 3 Noroeste 26 Noroeste 0 -- -- 44
2019-08-12 01:00:00 21.6 6 Noroeste 23 Noroeste 0 -- -- 54
2019-08-12 00:00:00 22 13 Oeste 31 Oeste 0 -- -- 61
2019-08-11 23:00:00 22.4 24 Oeste 45 Oeste 0 -- -- 60
2019-08-11 22:00:00 23.1 30 Oeste 42 Oeste 0 -- -- 57
2019-08-11 21:00:00 24.2 28 Oeste 37 Oeste 0 -- -- 50
2019-08-11 20:00:00 24.7 27 Oeste 41 Oeste 0 -- -- 48
2019-08-11 19:00:00 27.1 30 Oeste 42 Oeste 0 -- -- 43
2019-08-11 18:00:00 28.7 30 Oeste 41 Oeste 0 -- -- 38
2019-08-11 17:00:00 29.2 26 Oeste 43 Oeste 0 -- -- 34
2019-08-11 16:00:00 29.3 31 Noroeste 45 Oeste 0 -- -- 35
2019-08-11 15:00:00 29.7 23 Noroeste 37 Oeste 0 -- -- 37
2019-08-11 14:00:00 29.4 23 Oeste 37 Oeste 0 -- -- 38
2019-08-11 13:00:00 29 10 Noroeste 26 Oeste 0 -- -- 36
2019-08-11 12:00:00 26.9 9 Noroeste 23 Oeste 0 -- -- 42
2019-08-11 11:00:00 24.3 12 Noroeste 25 Norte 0 -- -- 49
2019-08-11 10:00:00 21.9 16 Noroeste 28 Noroeste 0 -- -- 55
2019-08-11 09:00:00 19.9 13 Noroeste 23 Noroeste 0 -- -- 62
2019-08-11 08:00:00 19.3 6 Noroeste 22 Noroeste 0 -- -- 65
2019-08-11 07:00:00 19.5 17 Noroeste 36 Noroeste 0 -- -- 68
2019-08-11 06:00:00 20.7 10 Noroeste 19 Noroeste 0 -- -- 64
2019-08-11 05:00:00 20.4 6 Noroeste 21 Noroeste 0 -- -- 67
2019-08-11 04:00:00 21.5 9 Noroeste 22 Noroeste 0 -- -- 65
2019-08-11 03:00:00 20.3 5 Nordeste 9 Noroeste 0 -- -- 83
2019-08-11 02:00:00 19.9 2 Norte 8 Nordeste 0 -- -- 76
2019-08-11 01:00:00 20.6 2 Este 8 Sudeste 0 -- -- 74
2019-08-11 00:00:00 21.6 3 Oeste 13 Sudoeste 0 -- -- 72
2019-08-10 23:00:00 22.1 12 Oeste 24 Oeste 0 -- -- 66
2019-08-10 22:00:00 23.2 18 Oeste 33 Oeste 0 -- -- 65
2019-08-10 21:00:00 25.3 28 Oeste 43 Oeste 0 -- -- 56
2019-08-10 20:00:00 28.3 33 Oeste 40 Oeste 0 -- -- 49
2019-08-10 19:00:00 30.2 31 Oeste 40 Oeste 0 -- -- 48
2019-08-10 18:00:00 32 26 Oeste 40 Noroeste 0 -- -- 46
2019-08-10 17:00:00 32.1 27 Oeste 40 Noroeste 0 -- -- 48
2019-08-10 16:00:00 32.7 24 Noroeste 34 Oeste 0 -- -- 47
2019-08-10 15:00:00 33.5 21 Oeste 30 Oeste 0 -- -- 47
2019-08-10 14:00:00 33 9 Norte 22 Noroeste 0 -- -- 45
2019-08-10 13:00:00 31.1 11 Noroeste 26 Norte 0 -- -- 51
2019-08-10 12:00:00 29.5 12 Noroeste 21 Noroeste 0 -- -- 58
2019-08-10 11:00:00 27.1 7 Noroeste 17 Noroeste 0 -- -- 68
2019-08-10 10:00:00 24.6 11 Noroeste 18 Noroeste 0 -- -- 78
2019-08-10 09:00:00 21.9 5 Noroeste 8 Noroeste 0 -- -- 92
2019-08-10 08:00:00 20.3 3 Noroeste 6 Noroeste 0 -- -- 94
2019-08-10 07:00:00 21 0 Calma 8 Noroeste 0 -- -- 94
2019-08-10 06:00:00 21.2 0 Calma 9 Sur 0 -- -- 94
2019-08-10 05:00:00 21.5 5 Sur 10 Sur 0 -- -- 94
2019-08-10 04:00:00 21.8 2 Oeste 12 Sur 0 -- -- 93
2019-08-10 03:00:00 22 4 Sur 11 Sur 0 -- -- 93
2019-08-10 02:00:00 22.3 5 Sur 10 Sur 0 -- -- 91
2019-08-10 01:00:00 22.5 7 Sudoeste 14 Oeste 0 -- -- 91
2019-08-10 00:00:00 22.6 3 Sudoeste 18 Oeste 0 -- -- 90
2019-08-09 23:00:00 22.9 5 Noroeste 23 Oeste 0 -- -- 89
2019-08-09 22:00:00 23.3 15 Oeste 28 Oeste 0 -- -- 86
2019-08-09 21:00:00 24 22 Oeste 37 Noroeste 0 -- -- 83
2019-08-09 20:00:00 25.6 24 Oeste 37 Noroeste 0 -- -- 76
2019-08-09 19:00:00 27.4 27 Oeste 37 Noroeste 0 -- -- 68
2019-08-09 18:00:00 28.2 25 Oeste 38 Oeste 0 -- -- 65
2019-08-09 17:00:00 29.7 28 Oeste 36 Oeste 0 -- -- 53
2019-08-09 16:00:00 30.2 21 Oeste 31 Oeste 0 -- -- 52
2019-08-09 15:00:00 30.1 19 Oeste 34 Oeste 0 -- -- 53
2019-08-09 14:00:00 29.2 17 Noroeste 31 Oeste 0 -- -- 57
2019-08-09 13:00:00 27.9 18 Oeste 30 Oeste 0 -- -- 61
2019-08-09 12:00:00 27.5 19 Oeste 30 Oeste 0 -- -- 68
2019-08-09 11:00:00 25.1 6 Noroeste 16 Oeste 0 -- -- 76
2019-08-09 10:00:00 22.3 9 Noroeste 14 Noroeste 0 -- -- 89
2019-08-09 09:00:00 21.1 3 Oeste 11 Sudeste 0 -- -- 95
2019-08-09 08:00:00 20.7 2 Sudoeste 8 Sur 0 -- -- 96
2019-08-09 07:00:00 20.9 4 Noroeste 8 Oeste 0 -- -- 94
2019-08-09 06:00:00 21 3 Noroeste 13 Oeste 0 -- -- 93
2019-08-09 05:00:00 21.2 4 Sudoeste 8 Este 0 -- -- 92
2019-08-09 04:00:00 20.3 5 Sudeste 10 Sudeste 0 -- -- 89
2019-08-09 03:00:00 19.3 0 Calma 4 Oeste 0 -- -- 90
2019-08-09 02:00:00 19.3 3 Noroeste 4 Noroeste 0 -- -- 88
2019-08-09 01:00:00 20.4 0 Calma 5 Norte 0 -- -- 84
2019-08-09 00:00:00 21.9 3 Noroeste 9 Oeste 0 -- -- 84
2019-08-08 23:00:00 23.1 8 Noroeste 20 Noroeste 0 -- -- 76
2019-08-08 22:00:00 24.7 7 Noroeste 31 Oeste 0 -- -- 63
2019-08-08 21:00:00 26.9 21 Oeste 37 Oeste 0 -- -- 56
2019-08-08 20:00:00 29.1 29 Noroeste 38 Oeste 0 -- -- 47
2019-08-08 19:00:00 31.8 25 Oeste 36 Noroeste 0 -- -- 41
2019-08-08 18:00:00 32.4 25 Oeste 37 Oeste 0 -- -- 40
2019-08-08 17:00:00 33.3 23 Oeste 34 Oeste 0 -- -- 40
2019-08-08 16:00:00 33.7 21 Noroeste 32 Oeste 0 -- -- 38
2019-08-08 15:00:00 34.2 19 Oeste 34 Oeste 0 -- -- 41
2019-08-08 14:00:00 33.8 8 Norte 18 Oeste 0 -- -- 38
2019-08-08 13:00:00 31.9 6 Nordeste 17 Nordeste 0 -- -- 40
2019-08-08 12:00:00 29 6 Sudeste 18 Sudeste 0 -- -- 59
2019-08-08 11:00:00 25.6 9 Sudeste 15 Sudeste 0 -- -- 73
2019-08-08 10:00:00 22.2 8 Oeste 11 Oeste 0 -- -- 87
2019-08-08 09:00:00 19 3 Este 6 Este 0 -- -- 92
2019-08-08 08:00:00 17.3 6 Nordeste 9 Nordeste 0 -- -- 93
2019-08-08 07:00:00 17.5 4 Noroeste 6 Noroeste 0 -- -- 91
2019-08-08 06:00:00 18.3 4 Oeste 8 Oeste 0 -- -- 92
2019-08-08 05:00:00 18.5 2 Oeste 5 Noroeste 0 -- -- 89
2019-08-08 04:00:00 19.1 2 Oeste 5 Noroeste 0 -- -- 86
2019-08-08 03:00:00 19.9 2 Este 8 Nordeste 0 -- -- 83
2019-08-08 02:00:00 21.1 0 Calma 6 Oeste 0 -- -- 82
2019-08-08 01:00:00 21.5 3 Oeste 6 Sudoeste 0 -- -- 80
2019-08-08 00:00:00 22 0 Calma 9 Sudoeste 0 -- -- 78
2019-08-07 23:00:00 23.3 4 Sudoeste 24 Oeste 0 -- -- 73
2019-08-07 22:00:00 24.4 18 Oeste 37 Oeste 0 -- -- 68
2019-08-07 21:00:00 26.2 22 Noroeste 32 Oeste 0 -- -- 59
2019-08-07 20:00:00 28 22 Oeste 34 Noroeste 0 -- -- 51
2019-08-07 19:00:00 29.8 24 Oeste 35 Oeste 0 -- -- 45
2019-08-07 18:00:00 31 24 Oeste 39 Oeste 0 -- -- 41
2019-08-07 17:00:00 32 30 Oeste 42 Oeste 0 -- -- 41
2019-08-07 16:00:00 32.7 21 Oeste 34 Oeste 0 -- -- 40
2019-08-07 15:00:00 32.3 19 Oeste 31 Oeste 0 -- -- 42
2019-08-07 14:00:00 31.6 13 Noroeste 25 Noroeste 0 -- -- 45
2019-08-07 13:00:00 29.7 6 Sudoeste 21 Sudoeste 0 -- -- 52
2019-08-07 12:00:00 27.1 8 Sudoeste 18 Oeste 0 -- -- 65
2019-08-07 11:00:00 25 6 Sur 16 Sudeste 0 -- -- 75
2019-08-07 10:00:00 22.1 7 Sur 14 Sudoeste 0 -- -- 87
2019-08-07 09:00:00 21.1 5 Sudoeste 11 Sudoeste 0 -- -- 91
2019-08-07 08:00:00 20.3 6 Sudoeste 12 Sur 0 -- -- 93
2019-08-07 07:00:00 20.3 4 Sudoeste 11 Sudoeste 0 -- -- 94
2019-08-07 06:00:00 19.7 2 Sudeste 8 Este 0 -- -- 96
2019-08-07 05:00:00 19.2 5 Sudeste 12 Sudeste 0 -- -- 97
2019-08-07 04:00:00 17.7 3 Sudeste 12 Sur 0 -- -- 88
2019-08-07 03:00:00 18.2 0 Calma 3 Sudeste 0 -- -- 85
2019-08-07 02:00:00 18.6 0 Calma 5 Oeste 0 -- -- 85
2019-08-07 01:00:00 19.7 2 Este 6 Sudoeste 0 -- -- 81
2019-08-07 00:00:00 20.5 4 Noroeste 8 Sudoeste 0 -- -- 77
2019-08-06 23:00:00 21.7 2 Sudeste 8 Sudoeste 0 -- -- 70
2019-08-06 22:00:00 23.7 4 Sudoeste 13 Sudoeste 0 -- -- 67
2019-08-06 21:00:00 26.2 5 Sudoeste 37 Noroeste 0 -- -- 57
2019-08-06 20:00:00 29.9 21 Oeste 35 Oeste 0 -- -- 42
2019-08-06 19:00:00 30.2 27 Oeste 39 Oeste 0 -- -- 47
2019-08-06 18:00:00 31 27 Oeste 38 Oeste 0 -- -- 44
2019-08-06 17:00:00 34.1 25 Oeste 33 Oeste 0 -- -- 27
2019-08-06 16:00:00 34.4 24 Oeste 38 Sudoeste 0 -- -- 34
2019-08-06 15:00:00 35.3 5 Este 16 Sudeste 0 -- -- 31
2019-08-06 14:00:00 32.7 9 Este 15 Nordeste 0 -- -- 34
2019-08-06 13:00:00 29.6 8 Este 15 Este 0 -- -- 44
2019-08-06 12:00:00 26.6 9 Noroeste 18 Noroeste 0 -- -- 60
2019-08-06 11:00:00 22.9 8 Oeste 15 Oeste 0 -- -- 73
2019-08-06 10:00:00 19.6 3 Sur 12 Sudoeste 0 -- -- 94
2019-08-06 09:00:00 18.3 5 Sur 8 Sudeste 0 -- -- 98
2019-08-06 08:00:00 18.1 4 Sur 11 Sudeste 0 -- -- 98
2019-08-06 07:00:00 18.2 4 Sudeste 11 Sudeste 0 -- -- 98
2019-08-06 06:00:00 17 3 Este 7 Este 0 -- -- 98
2019-08-06 05:00:00 15.7 9 Este 12 Este 0 -- -- 90
2019-08-06 04:00:00 16.6 3 Sudeste 6 Sudeste 0 -- -- 87
2019-08-06 03:00:00 17.4 2 Oeste 5 Noroeste 0 -- -- 83
2019-08-06 02:00:00 18.7 3 Nordeste 8 Sudoeste 0 -- -- 77
2019-08-06 01:00:00 20 4 Oeste 7 Noroeste 0 -- -- 80
2019-08-06 00:00:00 20.5 3 Oeste 6 Oeste 0 -- -- 65
2019-08-05 23:00:00 22.3 4 Sudoeste 10 Sudoeste 0 -- -- 61
2019-08-05 22:00:00 24.5 4 Oeste 22 Noroeste 0 -- -- 54
2019-08-05 21:00:00 26.5 16 Oeste 41 Oeste 0 -- -- 49
2019-08-05 20:00:00 28.3 31 Oeste 41 Oeste 0 -- -- 45
2019-08-05 19:00:00 30.3 29 Oeste 40 Oeste 0 -- -- 38
2019-08-05 18:00:00 32.2 28 Oeste 37 Oeste 0 -- -- 34
2019-08-05 17:00:00 33 24 Oeste 35 Noroeste 0 -- -- 39
2019-08-05 16:00:00 33.7 19 Noroeste 30 Oeste 0 -- -- 41
2019-08-05 15:00:00 34.2 15 Noroeste 30 Oeste 0 -- -- 41
2019-08-05 14:00:00 33.3 6 Noroeste 21 Noroeste 0 -- -- 41
2019-08-05 13:00:00 31.2 9 Este 16 Este 0 -- -- 48
2019-08-05 12:00:00 28.3 5 Nordeste 13 Sudeste 0 -- -- 58
2019-08-05 11:00:00 25.5 3 Sudeste 12 Sudeste 0 -- -- 72
2019-08-05 10:00:00 22.2 7 Sudeste 14 Sudeste 0 -- -- 88
2019-08-05 09:00:00 20 0 Calma 5 Sur 0 -- -- 97
2019-08-05 08:00:00 18.8 0 Calma 5 Sudeste 0 -- -- 96
2019-08-05 07:00:00 17.2 3 Oeste 4 Noroeste 0 -- -- 89
2019-08-05 06:00:00 17.5 2 Nordeste 4 Este 0 -- -- 83
2019-08-05 05:00:00 18.1 3 Este 5 Este 0 -- -- 85
2019-08-05 04:00:00 18.5 4 Este 5 Este 0 -- -- 81
2019-08-05 03:00:00 18.8 3 Este 6 Este 0 -- -- 79
2019-08-05 02:00:00 19.7 2 Oeste 6 Oeste 0 -- -- 78
2019-08-05 01:00:00 20.2 2 Oeste 5 Noroeste 0 -- -- 77
2019-08-05 00:00:00 21.2 3 Noroeste 6 Noroeste 0 -- -- 72
2019-08-04 23:00:00 23.1 2 Sur 9 Noroeste 0 -- -- 68
2019-08-04 22:00:00 24.2 3 Sudoeste 15 Noroeste 0 -- -- 68
2019-08-04 21:00:00 26.3 9 Oeste 27 Oeste 0 -- -- 62
2019-08-04 20:00:00 28.7 22 Oeste 32 Oeste 0 -- -- 52
2019-08-04 19:00:00 30.9 24 Oeste 32 Oeste 0 -- -- 45
2019-08-04 18:00:00 32.1 17 Noroeste 27 Noroeste 0 -- -- 43
2019-08-04 17:00:00 31.4 16 Oeste 29 Oeste 0 -- -- 45
2019-08-04 16:00:00 31 21 Noroeste 32 Oeste 0 -- -- 46
2019-08-04 15:00:00 31.4 17 Noroeste 29 Noroeste 0 -- -- 45
2019-08-04 14:00:00 30.7 17 Sudoeste 28 Sudoeste 0 -- -- 51
2019-08-04 13:00:00 29.8 7 Sudoeste 18 Noroeste 0 -- -- 48
2019-08-04 12:00:00 26.9 6 Este 14 Sudoeste 0 -- -- 60
2019-08-04 11:00:00 23.9 6 Oeste 14 Oeste 0 -- -- 73
2019-08-04 10:00:00 22.4 6 Sur 12 Sudoeste 0 -- -- 81
2019-08-04 09:00:00 20.6 7 Sudoeste 13 Sur 0 -- -- 91
2019-08-04 08:00:00 19.8 5 Sur 11 Sur 0 -- -- 95
2019-08-04 07:00:00 19.6 4 Sudeste 10 Sudeste 0 -- -- 95
2019-08-04 06:00:00 19.1 3 Sudeste 6 Sudeste 0 -- -- 93
2019-08-04 05:00:00 19.2 4 Sudeste 10 Sudeste 0 -- -- 90
2019-08-04 04:00:00 20 5 Este 8 Sudeste 0 -- -- 90
2019-08-04 03:00:00 20.7 5 Nordeste 9 Sudeste 0 -- -- 87
2019-08-04 02:00:00 21.2 3 Sudeste 17 Oeste 0 -- -- 87
2019-08-04 01:00:00 21.6 12 Oeste 17 Oeste 0 -- -- 80
2019-08-04 00:00:00 22.3 8 Oeste 17 Oeste 0 -- -- 74
2019-08-03 23:00:00 23.6 10 Oeste 13 Oeste 0 -- -- 72
2019-08-03 22:00:00 26.1 6 Oeste 16 Oeste 0 -- -- 59
2019-08-03 21:00:00 28.5 7 Oeste 20 Oeste 0 -- -- 35
2019-08-03 20:00:00 29.9 14 Oeste 24 Oeste 0 -- -- 33
2019-08-03 19:00:00 31.2 17 Oeste 27 Oeste 0 -- -- 32
2019-08-03 18:00:00 31.8 16 Oeste 28 Oeste 0 -- -- 35
2019-08-03 17:00:00 31.1 17 Sudoeste 30 Oeste 0 -- -- 40
2019-08-03 16:00:00 30.6 20 Oeste 30 Oeste 0 -- -- 45
2019-08-03 15:00:00 30.5 22 Oeste 35 Oeste 0 -- -- 47
2019-08-03 14:00:00 31.3 9 Sudoeste 23 Sudoeste 0 -- -- 45
2019-08-03 13:00:00 29.9 9 Sur 21 Sudeste 0 -- -- 49
2019-08-03 12:00:00 27.8 12 Sur 22 Sur 0 -- -- 54
2019-08-03 11:00:00 24.6 9 Sur 23 Sudoeste 0 -- -- 67
2019-08-03 10:00:00 22.8 10 Sur 21 Sur 0 -- -- 78
2019-08-03 09:00:00 21 6 Sudeste 13 Sudeste 0 -- -- 88
2019-08-03 08:00:00 19 9 Sudeste 14 Sudeste 0 -- -- 95
2019-08-03 07:00:00 16.7 0 Calma 4 Sur 0 -- -- 84
2019-08-03 06:00:00 16.8 2 Oeste 4 Noroeste 0 -- -- 82
2019-08-03 05:00:00 17.3 0 Calma 8 Nordeste 0 -- -- 75
2019-08-03 04:00:00 18.1 4 Este 8 Este 0 -- -- 72
2019-08-03 03:00:00 19 0 Calma 4 Este 0 -- -- 67
2019-08-03 02:00:00 20 0 Calma 5 Oeste 0 -- -- 63
2019-08-03 01:00:00 21.5 4 Noroeste 7 Oeste 0 -- -- 60
2019-08-03 00:00:00 22.7 4 Noroeste 12 Oeste 0 -- -- 57
2019-08-02 23:00:00 22.8 3 Noroeste 12 Oeste 0 -- -- 53
2019-08-02 22:00:00 25.1 8 Noroeste 19 Noroeste 0 -- -- 47
2019-08-02 21:00:00 27.3 10 Noroeste 33 Oeste 0 -- -- 41
2019-08-02 20:00:00 28.9 27 Oeste 39 Oeste 0 -- -- 39
2019-08-02 19:00:00 29.9 31 Oeste 39 Oeste 0 -- -- 36
2019-08-02 18:00:00 31.6 29 Oeste 38 Noroeste 0 -- -- 31
2019-08-02 17:00:00 32.2 26 Oeste 39 Oeste 0 -- -- 33
2019-08-02 16:00:00 31.6 28 Oeste 36 Oeste 0 -- -- 39
2019-08-02 15:00:00 31.9 22 Oeste 32 Oeste 0 -- -- 42
2019-08-02 14:00:00 32 16 Sudoeste 30 Sudoeste 0 -- -- 42
2019-08-02 13:00:00 32.8 8 Este 15 Nordeste 0 -- -- 42
2019-08-02 12:00:00 29.8 6 Este 14 Sudeste 0 -- -- 53
2019-08-02 11:00:00 26.5 7 Sudeste 14 Sudeste 0 -- -- 66
2019-08-02 10:00:00 22.7 4 Sudeste 7 Sudeste 0 -- -- 87
2019-08-02 09:00:00 19.3 3 Este 6 Este 0 -- -- 92
2019-08-02 08:00:00 17.2 0 Calma 4 Oeste 0 -- -- 88
2019-08-02 07:00:00 17.3 2 Oeste 4 Oeste 0 -- -- 84
2019-08-02 06:00:00 17.9 2 Oeste 6 Nordeste 0 -- -- 81
2019-08-02 05:00:00 18.5 3 Noroeste 6 Noroeste 0 -- -- 78
2019-08-02 04:00:00 19.3 0 Calma 5 Noroeste 0 -- -- 77
2019-08-02 03:00:00 20.1 0 Calma 7 Noroeste 0 -- -- 74
2019-08-02 02:00:00 20.4 3 Oeste 8 Noroeste 0 -- -- 73
2019-08-02 01:00:00 21.1 4 Oeste 6 Noroeste 0 -- -- 79
2019-08-02 00:00:00 22.6 3 Oeste 9 Sudoeste 0 -- -- 79
2019-08-01 23:00:00 23.7 5 Oeste 29 Oeste 0 -- -- 81
2019-08-01 22:00:00 24.9 24 Oeste 33 Oeste 0 -- -- 76
2019-08-01 21:00:00 27.4 23 Oeste 35 Oeste 0 -- -- 64
2019-08-01 20:00:00 29.1 24 Oeste 33 Oeste 0 -- -- 61
2019-08-01 19:00:00 30.1 23 Oeste 37 Oeste 0 -- -- 59
2019-08-01 18:00:00 30.8 24 Oeste 36 Noroeste 0 -- -- 58
2019-08-01 17:00:00 31.6 23 Oeste 32 Oeste 0 -- -- 56
2019-08-01 16:00:00 32.5 19 Oeste 27 Oeste 0 -- -- 54
2019-08-01 15:00:00 32.2 11 Este 26 Este 0 -- -- 51
2019-08-01 14:00:00 31.3 17 Este 30 Este 0 -- -- 53
2019-08-01 13:00:00 30.4 21 Este 36 Este 0 -- -- 56
2019-08-01 12:00:00 29.6 30 Este 41 Este 0 -- -- 60
2019-08-01 11:00:00 28.1 28 Este 43 Este 0 -- -- 66
2019-08-01 10:00:00 26.8 31 Este 42 Sudeste 0 -- -- 71
2019-08-01 09:00:00 25.3 27 Este 36 Este 0 -- -- 77
2019-08-01 08:00:00 23.9 16 Este 29 Este 0 -- -- 83
2019-08-01 07:00:00 23.7 19 Este 29 Este 0 -- -- 82
2019-08-01 06:00:00 23.7 19 Este 30 Este 0 -- -- 82
2019-08-01 05:00:00 23.7 18 Este 27 Este 0 -- -- 83
2019-08-01 04:00:00 23.8 17 Este 32 Sudeste 0 -- -- 83
2019-08-01 03:00:00 24 22 Este 34 Este 0 -- -- 83
2019-08-01 02:00:00 24.2 20 Este 34 Sudeste 0 -- -- 81
2019-08-01 01:00:00 24.5 22 Este 33 Este 0 -- -- 80
2019-08-01 00:00:00 24.5 15 Este 32 Este 0 -- -- 79
2019-07-31 23:00:00 24.8 24 Este 42 Sudeste 0 -- -- 78
2019-07-31 22:00:00 25.5 23 Este 46 Sudeste 0 -- -- 76
2019-07-31 21:00:00 26.8 32 Sudeste 51 Este 0 -- -- 70
2019-07-31 20:00:00 28.6 35 Este 53 Este 0 -- -- 62
2019-07-31 19:00:00 29.7 38 Sudeste 56 Sudeste 0 -- -- 58
2019-07-31 18:00:00 30.5 41 Este 56 Este 0 -- -- 54
2019-07-31 17:00:00 30.9 38 Este 59 Este 0 -- -- 53
2019-07-31 16:00:00 30.9 40 Este 60 Este 0 -- -- 53
2019-07-31 15:00:00 30.7 41 Este 60 Este 0 -- -- 54
2019-07-31 14:00:00 30 43 Este 56 Sudeste 0 -- -- 56
2019-07-31 13:00:00 29.8 39 Este 54 Este 0 -- -- 55
2019-07-31 12:00:00 28.8 39 Sudeste 59 Sudeste 0 -- -- 58
2019-07-31 11:00:00 27.3 37 Este 55 Este 0 -- -- 64
2019-07-31 10:00:00 26.7 36 Este 51 Sudeste 0 -- -- 63
2019-07-31 09:00:00 25.1 26 Sudeste 36 Sudeste 0 -- -- 70
2019-07-31 08:00:00 23.5 22 Sudeste 34 Sudeste 0 -- -- 77
2019-07-31 07:00:00 23.1 20 Sudeste 35 Sudeste 0 -- -- 80
2019-07-31 06:00:00 23.3 21 Sudeste 37 Este 0 -- -- 79
2019-07-31 05:00:00 23.9 22 Sudeste 35 Este 0 -- -- 69
2019-07-31 04:00:00 23.9 13 Este 26 Este 0 -- -- 65
2019-07-31 03:00:00 23 4 Sudeste 10 Sudeste 0 -- -- 47
2019-07-31 02:00:00 21.5 3 Oeste 8 Nordeste 0 -- -- 47
2019-07-31 01:00:00 22.3 4 Noroeste 9 Oeste 0 -- -- 45
2019-07-31 00:00:00 23.8 6 Noroeste 8 Noroeste 0 -- -- 43
2019-07-30 23:00:00 26 5 Nordeste 21 Oeste 0 -- -- 39
2019-07-30 22:00:00 27.9 17 Oeste 31 Oeste 0 -- -- 36
2019-07-30 21:00:00 30.2 22 Oeste 36 Oeste 0 -- -- 30
2019-07-30 20:00:00 31.8 27 Oeste 41 Oeste 0 -- -- 28
2019-07-30 19:00:00 32.7 30 Oeste 40 Oeste 0 -- -- 28
2019-07-30 18:00:00 33.9 26 Oeste 41 Oeste 0 -- -- 29
2019-07-30 17:00:00 34.1 28 Oeste 39 Oeste 0 -- -- 30
2019-07-30 16:00:00 35.2 13 Noroeste 27 Oeste 0 -- -- 26
2019-07-30 15:00:00 34.3 12 Noroeste 26 Noroeste 0 -- -- 28
2019-07-30 14:00:00 33.4 9 Noroeste 22 Noroeste 0 -- -- 28
2019-07-30 13:00:00 31.4 10 Noroeste 24 Norte 0 -- -- 31
2019-07-30 12:00:00 29.3 7 Norte 17 Noroeste 0 -- -- 37
2019-07-30 11:00:00 26.3 3 Sudeste 13 Noroeste 0 -- -- 45
2019-07-30 10:00:00 24.1 5 Norte 14 Noroeste 0 -- -- 47
2019-07-30 09:00:00 21.3 2 Sudeste 8 Noroeste 0 -- -- 55
2019-07-30 08:00:00 18.7 0 Calma 12 Noroeste 0 -- -- 61
2019-07-30 07:00:00 18.9 7 Noroeste 22 Oeste 0 -- -- 59
2019-07-30 06:00:00 19.2 10 Noroeste 18 Noroeste 0 -- -- 59
2019-07-30 05:00:00 20.1 10 Noroeste 19 Noroeste 0 -- -- 58
2019-07-30 04:00:00 20.3 8 Noroeste 14 Noroeste 0 -- -- 74
2019-07-30 03:00:00 19.1 4 Noroeste 7 Noroeste 0 -- -- 84
2019-07-30 02:00:00 19.7 4 Oeste 8 Oeste 0 -- -- 85
2019-07-30 01:00:00 20.1 2 Oeste 6 Noroeste 0 -- -- 81
2019-07-30 00:00:00 21.3 3 Oeste 5 Noroeste 0 -- -- 78
2019-07-29 23:00:00 22.9 3 Norte 38 Oeste 0 -- -- 75
2019-07-29 22:00:00 23.8 26 Oeste 38 Oeste 0 -- -- 71
2019-07-29 21:00:00 25.4 28 Oeste 40 Noroeste 0 -- -- 65
2019-07-29 20:00:00 28.2 26 Oeste 39 Oeste 0 -- -- 56
2019-07-29 19:00:00 29.6 25 Oeste 39 Oeste 0 -- -- 46
2019-07-29 18:00:00 31.2 24 Oeste 32 Oeste 0 -- -- 42
2019-07-29 17:00:00 30.5 18 Oeste 31 Oeste 0 -- -- 43
2019-07-29 16:00:00 29.5 23 Oeste 34 Oeste 0 -- -- 46
2019-07-29 15:00:00 29.2 23 Oeste 33 Oeste 0 -- -- 50
2019-07-29 14:00:00 29.8 12 Oeste 23 Sudeste 0 -- -- 52
2019-07-29 13:00:00 28.3 11 Sur 21 Sudeste 0 -- -- 58
2019-07-29 12:00:00 26.5 9 Sudeste 22 Sudeste 0 -- -- 65
2019-07-29 11:00:00 24.6 7 Sudeste 16 Sudeste 0 -- -- 72
2019-07-29 10:00:00 22 4 Sur 13 Sudeste 0 -- -- 85
2019-07-29 09:00:00 19.7 4 Sudeste 6 Sudeste 0 -- -- 93
2019-07-29 08:00:00 18.3 3 Sudeste 5 Sudeste 0 -- -- 95
2019-07-29 07:00:00 17.7 0 Calma 3 Sudeste 0 -- -- 95
2019-07-29 06:00:00 17.1 2 Este 3 Este 0 -- -- 94
2019-07-29 05:00:00 17 0 Calma 4 Este 0 -- -- 93
2019-07-29 04:00:00 17.5 2 Este 6 Sudeste 0 -- -- 94
2019-07-29 03:00:00 17.7 4 Sudeste 6 Este 0 -- -- 91
2019-07-29 02:00:00 18.4 3 Este 5 Este 0 -- -- 90
2019-07-29 01:00:00 19.2 0 Calma 13 Oeste 0 -- -- 90
2019-07-29 00:00:00 19.4 10 Oeste 15 Oeste 0 -- -- 88
2019-07-28 23:00:00 19.9 7 Oeste 16 Oeste 0 -- -- 84
2019-07-28 22:00:00 21.1 9 Oeste 21 Oeste 0 -- -- 78
2019-07-28 21:00:00 23.1 14 Oeste 22 Oeste 0 -- -- 70
2019-07-28 20:00:00 24.5 18 Oeste 25 Oeste 0 -- -- 65
2019-07-28 19:00:00 25.1 19 Sudoeste 31 Oeste 0 -- -- 62
2019-07-28 18:00:00 26 19 Oeste 31 Oeste 0 -- -- 58
2019-07-28 17:00:00 26.2 16 Oeste 32 Oeste 0 -- -- 55
2019-07-28 16:00:00 26.8 18 Oeste 34 Oeste 0 -- -- 53
2019-07-28 15:00:00 26.9 19 Oeste 37 Oeste 0 -- -- 55
2019-07-28 14:00:00 25.5 19 Oeste 30 Oeste 0 -- -- 59
2019-07-28 13:00:00 24.9 18 Oeste 30 Noroeste 0 -- -- 61
2019-07-28 12:00:00 24.8 12 Oeste 21 Oeste 0 -- -- 62
2019-07-28 11:00:00 23.3 8 Noroeste 19 Noroeste 0 -- -- 68
2019-07-28 10:00:00 21.8 8 Noroeste 16 Noroeste 0 -- -- 76
2019-07-28 09:00:00 20.9 5 Norte 14 Oeste 0 -- -- 80
2019-07-28 08:00:00 19.3 7 Oeste 13 Oeste 0 -- -- 87
2019-07-28 07:00:00 20.2 6 Oeste 9 Oeste 0 -- -- 85
2019-07-28 06:00:00 20.5 5 Oeste 11 Oeste 0 -- -- 84
2019-07-28 05:00:00 20.5 5 Oeste 14 Oeste 0 -- -- 85
2019-07-28 04:00:00 20.5 8 Oeste 23 Oeste 0 -- -- 86
2019-07-28 03:00:00 20.7 13 Oeste 23 Oeste 0 -- -- 88
2019-07-28 02:00:00 20.6 11 Oeste 19 Oeste 0 -- -- 89
2019-07-28 01:00:00 21.1 13 Oeste 22 Oeste 0 -- -- 87
2019-07-28 00:00:00 21.3 14 Oeste 28 Oeste 0 -- -- 87
2019-07-27 23:00:00 21.4 17 Oeste 29 Oeste 0 -- -- 87
2019-07-26 12:00:00 -- -- -- -- -- -- -- -- --
2019-07-26 11:00:00 24.1 13 Oeste 22 Oeste 0 -- -- 76
2019-07-26 10:00:00 23.5 10 Oeste 17 Oeste 0 -- -- 82
2019-07-26 09:00:00 22.3 9 Oeste 13 Sudoeste 0 -- -- 90
2019-07-26 08:00:00 21.7 5 Sur 11 Sur 0 -- -- 90
2019-07-26 07:00:00 21.4 6 Sur 10 Sur 0 -- -- 90
2019-07-26 06:00:00 21.3 5 Sur 12 Sudoeste 0 -- -- 90
2019-07-26 05:00:00 21.2 5 Sur 14 Sur 0 -- -- 91
2019-07-26 04:00:00 21.1 6 Sur 12 Sur 0 -- -- 91
2019-07-26 03:00:00 21.1 4 Sudoeste 13 Sur 0 -- -- 92
2019-07-26 02:00:00 21.1 5 Sur 13 Sur 0 -- -- 92
2019-07-26 01:00:00 21 5 Sur 12 Sur 0 -- -- 91
2019-07-26 00:00:00 21.3 3 Sur 10 Sudoeste 0 -- -- 87
2019-07-25 23:00:00 22.3 3 Sudoeste 18 Oeste 0 -- -- 86
2019-07-25 22:00:00 23.4 8 Oeste 15 Sudoeste 0 -- -- 83
2019-07-25 21:00:00 24.9 13 Oeste 30 Oeste 0 -- -- 78
2019-07-25 20:00:00 27.6 20 Oeste 29 Oeste 0 -- -- 65
2019-07-25 19:00:00 30.3 17 Oeste 27 Oeste 0 -- -- 55
2019-07-25 18:00:00 30.3 18 Sudoeste 29 Oeste 0 -- -- 54
2019-07-25 17:00:00 30.3 18 Oeste 33 Oeste 0 -- -- 59
2019-07-25 16:00:00 30.7 16 Sudoeste 32 Sudoeste 0 -- -- 58
2019-07-25 15:00:00 29.8 15 Sudoeste 29 Sur 0 -- -- 61
2019-07-25 14:00:00 30.5 13 Sudoeste 26 Sudoeste 0 -- -- 60
2019-07-25 13:00:00 30.9 11 Sudoeste 24 Sudeste 0 -- -- 58
2019-07-25 12:00:00 29.4 7 Sudeste 14 Sur 0 -- -- 59
2019-07-25 11:00:00 26.8 5 Sudeste 13 Sur 0 -- -- 68
2019-07-25 10:00:00 25.2 4 Nordeste 10 Este 0 -- -- 75
2019-07-25 09:00:00 22.2 0 Calma 5 Oeste 0 -- -- 88
2019-07-25 08:00:00 19.2 0 Calma 4 Oeste 0 -- -- 89
2019-07-25 07:00:00 19.6 3 Sudoeste 5 Sudoeste 0 -- -- 89
2019-07-25 06:00:00 20.4 2 Nordeste 7 Oeste 0 -- -- 86
2019-07-25 05:00:00 21.7 5 Sudoeste 13 Sudoeste 0 -- -- 88
2019-07-25 04:00:00 22.6 8 Oeste 14 Sudoeste 0 -- -- 80
2019-07-25 03:00:00 22.5 3 Sudeste 6 Este 0 -- -- 67
2019-07-25 02:00:00 23.8 2 Sudeste 8 Sudeste 0 -- -- 64
2019-07-25 01:00:00 25.2 4 Sur 14 Sudeste 0 -- -- 61
2019-07-25 00:00:00 25.8 11 Sudeste 26 Sudeste 0 -- -- 60
2019-07-24 23:00:00 26.3 11 Sudeste 18 Sudeste 0 -- -- 58
2019-07-24 22:00:00 27.7 7 Este 26 Sudeste 0 -- -- 51
2019-07-24 21:00:00 31.1 14 Este 23 Este 0 -- -- 44
2019-07-24 20:00:00 33.1 19 Sudeste 32 Sudeste 0 -- -- 38
2019-07-24 19:00:00 34.3 23 Sudeste 42 Sudeste 0 -- -- 35
2019-07-24 18:00:00 34.9 21 Sudeste 35 Sudeste 0 -- -- 35
2019-07-24 17:00:00 35 23 Este 41 Este 0 -- -- 36
2019-07-24 16:00:00 34.8 26 Este 41 Este 0 -- -- 37
2019-07-24 15:00:00 34.4 27 Este 44 Este 0 -- -- 39
2019-07-24 14:00:00 33.5 19 Sudeste 32 Este 0 -- -- 45
2019-07-24 13:00:00 32.6 13 Sudeste 27 Sudeste 0 -- -- 52
2019-07-24 12:00:00 30.8 14 Sudeste 28 Sudeste 0 -- -- 57
2019-07-24 11:00:00 29.6 14 Sudeste 27 Este 0 -- -- 60
2019-07-24 10:00:00 27.5 19 Este 30 Este 0 -- -- 66
2019-07-24 09:00:00 23.9 8 Sudeste 16 Sudeste 0 -- -- 84
2019-07-24 08:00:00 20.8 3 Oeste 4 Sudoeste 0 -- -- 90
2019-07-24 07:00:00 21.4 5 Nordeste 12 Este 0 -- -- 90
2019-07-24 06:00:00 21.7 2 Nordeste 11 Este 0 -- -- 87
2019-07-24 05:00:00 21.9 5 Sudeste 10 Sudeste 0 -- -- 86
2019-07-24 04:00:00 22 4 Oeste 5 Sudoeste 0 -- -- 84
2019-07-24 03:00:00 22.6 3 Oeste 4 Este 0 -- -- 80
2019-07-24 02:00:00 23.6 2 Noroeste 12 Sudeste 0 -- -- 78
2019-07-24 01:00:00 24.5 12 Sudeste 17 Este 0 -- -- 76
2019-07-24 00:00:00 25.1 10 Este 22 Este 0 -- -- 72